Time;durP1;ratioP1;P1;durP2;ratioP2;P2;SDS_P1;SDS_P2;PMS_P1;PMS_P2;Temp;Humidity;BMP_temperature;BMP_pressure;BME280_temperature;BME280_humidity;BME280_pressure;Samples;Min_cycle;Max_cycle;Signal;HPM_P1;HPM_P2
2023/08/05 00:02:13;;;;;;;2.90;1.20;;;;;;;16.02;100.00;98409.53;15286963;19;20318;-55
2023/08/05 00:07:38;;;;;;;2.72;1.27;;;;;;;15.93;100.00;98392.53;15293002;19;20023;-55
2023/08/05 00:13:02;;;;;;;3.70;1.23;;;;;;;15.87;100.00;98393.31;15294141;19;20366;-52
2023/08/05 00:18:29;;;;;;;1.83;1.00;;;;;;;15.86;100.00;98351.75;15294862;19;20020;-51
2023/08/05 00:23:54;;;;;;;5.00;1.05;;;;;;;15.84;100.00;98363.78;15290571;19;20022;-51
2023/08/05 00:29:19;;;;;;;1.60;1.00;;;;;;;15.80;100.00;98368.78;15295850;19;20086;-53
2023/08/05 00:34:46;;;;;;;1.42;0.88;;;;;;;15.79;100.00;98326.34;15286029;19;20026;-50
2023/08/05 00:40:12;;;;;;;3.40;1.00;;;;;;;15.82;100.00;98334.13;15300726;19;20025;-55
2023/08/05 00:45:37;;;;;;;4.50;1.02;;;;;;;15.82;100.00;98314.25;15283571;19;20499;-54
2023/08/05 00:51:05;;;;;;;2.55;0.82;;;;;;;15.86;100.00;98299.28;15295534;19;20082;-52
2023/08/05 00:56:31;;;;;;;1.55;0.90;;;;;;;15.88;100.00;98285.50;15291757;19;20025;-54
2023/08/05 01:01:56;;;;;;;1.67;0.90;;;;;;;15.85;100.00;98290.28;15284857;19;20468;-53
2023/08/05 01:07:25;;;;;;;1.08;0.70;;;;;;;15.84;100.00;98285.00;15284250;19;20043;-50
2023/08/05 01:12:50;;;;;;;1.85;0.90;;;;;;;15.82;100.00;98287.06;15289189;19;20353;-52
2023/08/05 01:18:17;;;;;;;1.77;0.80;;;;;;;15.82;100.00;98281.66;15283933;19;20088;-56
2023/08/05 01:23:53;;;;;;;3.38;0.80;;;;;;;15.80;100.00;98279.13;15288472;19;20019;-54
2023/08/05 01:29:22;;;;;;;2.47;0.88;;;;;;;15.81;100.00;98291.69;15291223;19;20487;-52
2023/08/05 01:34:49;;;;;;;1.40;0.70;;;;;;;15.80;100.00;98289.19;15282938;19;20085;-53
2023/08/05 01:40:15;;;;;;;1.67;0.65;;;;;;;15.77;100.00;98289.56;15289640;19;20025;-52
2023/08/05 01:45:49;;;;;;;2.00;0.80;;;;;;;15.70;100.00;98297.66;15281284;19;20015;-52
2023/08/05 01:51:14;;;;;;;1.42;0.63;;;;;;;15.65;100.00;98305.56;15286060;19;20014;-54
2023/08/05 01:56:39;;;;;;;1.70;0.80;;;;;;;15.57;100.00;98291.09;15288972;19;20382;-55
2023/08/05 02:02:07;;;;;;;1.75;0.80;;;;;;;15.48;100.00;98299.56;15276665;19;20022;-53
2023/08/05 02:07:31;;;;;;;3.10;0.70;;;;;;;15.40;100.00;98300.56;15283981;19;20024;-55
2023/08/05 02:12:56;;;;;;;0.57;0.50;;;;;;;15.36;100.00;98300.09;15286432;19;20007;-56
2023/08/05 02:18:23;;;;;;;2.13;0.90;;;;;;;15.32;100.00;98297.97;15283692;19;20770;-55
2023/08/05 02:23:48;;;;;;;2.47;0.73;;;;;;;15.28;100.00;98300.25;15284395;19;20839;-51
2023/08/05 02:29:12;;;;;;;1.10;0.70;;;;;;;15.22;100.00;98292.91;15289047;19;20021;-50
2023/08/05 02:34:41;;;;;;;1.45;0.50;;;;;;;15.17;100.00;98298.88;15275612;19;20404;-51
2023/08/05 02:40:05;;;;;;;2.00;0.57;;;;;;;15.15;100.00;98284.69;15288369;19;20523;-53
2023/08/05 02:45:30;;;;;;;1.38;0.60;;;;;;;15.08;100.00;98298.19;15275725;19;20367;-53
2023/08/05 02:50:58;;;;;;;1.42;0.50;;;;;;;15.05;100.00;98287.72;15290426;19;20031;-51
2023/08/05 02:56:23;;;;;;;1.20;0.60;;;;;;;15.02;100.00;98266.38;15280566;19;20014;-52
2023/08/05 03:01:47;;;;;;;1.85;0.60;;;;;;;14.99;100.00;98269.50;15277768;19;20722;-51
2023/08/05 03:07:14;;;;;;;1.38;0.60;;;;;;;15.00;100.00;98260.31;15277653;19;20018;-56
2023/08/05 03:12:39;;;;;;;1.65;0.77;;;;;;;15.00;100.00;98251.34;15290849;19;20410;-51
2023/08/05 03:18:04;;;;;;;1.58;0.77;;;;;;;15.00;100.00;98267.63;15298043;19;20026;-51
2023/08/05 03:23:32;;;;;;;0.80;0.70;;;;;;;14.97;100.00;98271.56;15289807;19;20036;-51
2023/08/05 03:28:58;;;;;;;0.98;0.68;;;;;;;14.96;100.00;98275.31;15297652;19;20015;-51
2023/08/05 03:34:24;;;;;;;1.30;0.60;;;;;;;14.95;100.00;98276.34;15289845;19;20021;-52
2023/08/05 03:39:52;;;;;;;1.38;0.70;;;;;;;14.94;100.00;98285.50;15297671;19;20018;-52
2023/08/05 03:45:18;;;;;;;1.45;0.82;;;;;;;14.93;100.00;98286.53;15287991;19;20082;-50
2023/08/05 03:50:43;;;;;;;1.33;0.80;;;;;;;14.89;100.00;98293.38;15298049;19;20011;-50
2023/08/05 03:56:12;;;;;;;1.23;0.65;;;;;;;14.88;100.00;98302.53;15293985;19;20015;-52
2023/08/05 04:01:38;;;;;;;3.80;0.90;;;;;;;14.85;100.00;98298.34;15291099;19;20023;-51
2023/08/05 04:07:02;;;;;;;2.97;0.85;;;;;;;14.83;100.00;98308.53;15294930;19;20086;-51
2023/08/05 04:12:30;;;;;;;1.10;0.70;;;;;;;14.84;100.00;98307.50;15293641;19;20030;-51
2023/08/05 04:17:59;;;;;;;1.42;0.80;;;;;;;14.80;100.00;98317.09;15295518;19;20028;-56
2023/08/05 04:23:25;;;;;;;1.83;0.85;;;;;;;14.76;100.00;98335.59;15286246;19;20025;-51
2023/08/05 04:28:52;;;;;;;2.05;0.88;;;;;;;14.74;100.00;98355.81;15298774;19;20018;-53
2023/08/05 04:34:17;;;;;;;1.50;0.68;;;;;;;14.75;100.00;98362.91;15288807;19;20017;-50
2023/08/05 04:39:41;;;;;;;1.60;0.85;;;;;;;14.76;100.00;98368.13;15293142;19;20026;-52
2023/08/05 04:45:10;;;;;;;1.83;0.70;;;;;;;14.77;100.00;98377.94;15286050;19;20699;-50
2023/08/05 04:50:34;;;;;;;1.27;0.73;;;;;;;14.80;100.00;98387.59;15295639;19;20015;-50
2023/08/05 04:55:59;;;;;;;1.38;0.70;;;;;;;14.79;100.00;98381.31;15285723;19;20017;-53
2023/08/05 05:01:26;;;;;;;1.58;0.88;;;;;;;14.73;100.00;98357.69;15294575;19;20022;-50
2023/08/05 05:06:51;;;;;;;1.67;0.90;;;;;;;14.69;100.00;98358.25;15286842;19;20010;-50
2023/08/05 05:12:17;;;;;;;2.70;0.88;;;;;;;14.61;100.00;98367.31;15287778;19;20028;-54
2023/08/05 05:17:44;;;;;;;2.47;1.00;;;;;;;14.45;100.00;98380.00;15288300;19;20086;-56
2023/08/05 05:23:16;;;;;;;2.42;1.10;;;;;;;14.39;100.00;98397.03;15283903;19;20017;-56
2023/08/05 05:28:41;;;;;;;1.83;0.88;;;;;;;14.38;100.00;98422.47;15297314;19;20213;-51
2023/08/05 05:34:08;;;;;;;2.03;1.02;;;;;;;14.40;100.00;98415.00;15293358;19;20082;-55
2023/08/05 05:39:33;;;;;;;3.70;1.13;;;;;;;14.49;100.00;98430.13;15289993;19;20010;-51
2023/08/05 05:44:57;;;;;;;1.70;1.15;;;;;;;14.54;100.00;98409.72;15282616;19;20093;-50
2023/08/05 05:50:25;;;;;;;3.17;1.80;;;;;;;14.64;100.00;98407.59;15290935;19;20014;-50
2023/08/05 05:55:49;;;;;;;3.88;1.92;;;;;;;14.69;100.00;98402.47;15287214;19;20018;-50
2023/08/05 06:01:14;;;;;;;3.03;2.28;;;;;;;14.72;100.00;98387.69;15291810;19;20014;-51
2023/08/05 06:06:41;;;;;;;3.30;1.95;;;;;;;14.77;100.00;98398.81;15280251;19;20090;-50
2023/08/05 06:12:10;;;;;;;3.15;2.25;;;;;;;14.76;100.00;98400.66;15286521;19;20029;-51
2023/08/05 06:17:34;;;;;;;4.47;2.17;;;;;;;14.84;100.00;98396.19;15283783;19;20022;-51
2023/08/05 06:23:02;;;;;;;4.78;3.15;;;;;;;14.85;100.00;98400.59;15279402;19;20190;-53
2023/08/05 06:28:26;;;;;;;4.97;4.05;;;;;;;14.85;100.00;98398.72;15289891;19;20029;-52
2023/08/05 06:33:51;;;;;;;6.28;4.20;;;;;;;14.88;100.00;98386.63;15280426;19;20407;-52
2023/08/05 06:39:18;;;;;;;4.75;3.90;;;;;;;14.88;100.00;98389.34;15285968;19;20022;-54
2023/08/05 06:44:44;;;;;;;5.57;4.00;;;;;;;14.91;100.00;98378.13;15281722;19;20416;-52
2023/08/05 06:50:09;;;;;;;4.47;3.38;;;;;;;14.92;100.00;98379.81;15299560;19;20085;-51
2023/08/05 06:55:37;;;;;;;6.88;4.25;;;;;;;14.91;100.00;98373.53;15297937;19;20626;-54
2023/08/05 07:01:01;;;;;;;6.07;4.50;;;;;;;14.97;100.00;98360.25;15301708;19;20014;-56
2023/08/05 07:06:26;;;;;;;4.78;3.60;;;;;;;15.04;100.00;98344.88;15290314;19;20360;-55
2023/08/05 07:11:54;;;;;;;4.43;3.13;;;;;;;15.20;100.00;98332.94;15296620;19;20394;-54
2023/08/05 07:17:20;;;;;;;4.95;2.70;;;;;;;15.34;100.00;98318.47;15298075;19;20025;-50
2023/08/05 07:22:44;;;;;;;2.70;2.08;;;;;;;15.46;100.00;98315.25;15291172;19;20025;-50
2023/08/05 07:28:12;;;;;;;3.15;1.50;;;;;;;15.55;100.00;98314.88;15300019;19;20375;-50
2023/08/05 07:33:36;;;;;;;2.88;1.35;;;;;;;15.69;100.00;98305.00;15290134;19;20031;-50
2023/08/05 07:39:06;;;;;;;2.92;1.40;;;;;;;15.78;100.00;98286.63;15295912;19;20014;-50
2023/08/05 07:44:33;;;;;;;4.00;1.20;;;;;;;15.91;100.00;98294.09;15290148;19;20014;-50
2023/08/05 07:49:59;;;;;;;3.90;1.30;;;;;;;16.03;100.00;98297.06;15294763;19;20360;-51
2023/08/05 07:55:25;;;;;;;1.55;1.00;;;;;;;16.20;100.00;98284.00;15289396;19;20018;-51
2023/08/05 08:00:59;;;;;;;2.63;1.10;;;;;;;16.38;100.00;98274.47;15295430;19;20014;-50
2023/08/05 08:06:24;;;;;;;2.78;1.17;;;;;;;16.55;100.00;98266.81;15287121;19;20020;-56
2023/08/05 08:11:49;;;;;;;2.50;1.10;;;;;;;16.76;100.00;98276.69;15293491;19;20540;-55
2023/08/05 08:17:16;;;;;;;4.75;1.30;;;;;;;17.02;100.00;98281.41;15281974;19;20014;-54
2023/08/05 08:22:41;;;;;;;2.33;1.10;;;;;;;17.24;100.00;98270.31;15288280;19;20086;-54
2023/08/05 08:28:05;;;;;;;3.10;1.15;;;;;;;17.46;100.00;98273.69;15295741;19;20082;-52
2023/08/05 08:33:39;;;;;;;2.67;1.00;;;;;;;17.53;100.00;98260.06;15288710;19;20006;-53
2023/08/05 08:39:04;;;;;;;4.10;1.20;;;;;;;17.65;100.00;98257.53;15293154;19;20007;-52
2023/08/05 08:44:30;;;;;;;4.30;1.20;;;;;;;17.75;100.00;98236.16;15291486;19;20042;-51
2023/08/05 08:50:05;;;;;;;1.67;0.80;;;;;;;17.81;100.00;98242.63;15289020;19;20014;-53
2023/08/05 08:55:38;;;;;;;2.38;0.95;;;;;;;18.01;100.00;98235.28;15289258;19;20539;-52
2023/08/05 09:01:05;;;;;;;2.58;0.90;;;;;;;18.18;100.00;98216.56;15295343;19;20554;-51
2023/08/05 09:06:32;;;;;;;2.45;0.75;;;;;;;18.36;100.00;98212.28;15280549;19;20089;-53
2023/08/05 09:11:58;;;;;;;2.17;0.98;;;;;;;18.43;100.00;98213.09;15286903;19;20026;-53
2023/08/05 09:17:23;;;;;;;2.72;0.88;;;;;;;18.57;100.00;98222.06;15291514;19;20018;-53
2023/08/05 09:22:59;;;;;;;2.15;0.90;;;;;;;18.62;100.00;98202.31;15279375;19;20019;-55
2023/08/05 09:28:38;;;;;;;2.35;1.00;;;;;;;18.78;100.00;98196.31;15292627;19;20039;-53
2023/08/05 09:34:08;;;;;;;1.80;0.80;;;;;;;18.95;100.00;98201.28;15289175;19;20892;-52
2023/08/05 09:39:44;;;;;;;2.50;1.20;;;;;;;19.13;100.00;98196.94;15291248;19;20575;-49
2023/08/05 09:45:12;;;;;;;2.05;0.85;;;;;;;19.35;100.00;98200.94;15285747;19;20036;-51
2023/08/05 09:50:38;;;;;;;2.03;0.95;;;;;;;19.49;100.00;98187.16;15289835;19;20623;-51
2023/08/05 09:56:06;;;;;;;3.92;1.00;;;;;;;19.42;100.00;98181.75;15281787;19;20014;-50
2023/08/05 10:01:31;;;;;;;1.98;0.88;;;;;;;19.59;100.00;98195.66;15291348;19;20014;-51
2023/08/05 10:06:57;;;;;;;1.40;0.88;;;;;;;19.42;100.00;98200.06;15284734;19;20015;-56
2023/08/05 10:12:27;;;;;;;3.08;0.98;;;;;;;19.25;100.00;98178.75;15295636;19;20010;-55
2023/08/05 10:17:52;;;;;;;2.60;0.90;;;;;;;19.26;100.00;98166.78;15287487;19;20769;-53
2023/08/05 10:23:18;;;;;;;3.42;0.93;;;;;;;19.32;100.00;98159.59;15295264;19;20018;-52
2023/08/05 10:28:46;;;;;;;1.88;0.85;;;;;;;19.46;100.00;98169.31;15296681;19;20014;-53
2023/08/05 10:34:19;;;;;;;2.08;0.85;;;;;;;19.59;100.00;98160.16;15299367;19;20846;-53
2023/08/05 10:39:47;;;;;;;1.88;0.80;;;;;;;19.68;100.00;98155.22;15292909;19;20424;-50
2023/08/05 10:45:19;;;;;;;2.53;0.77;;;;;;;19.75;100.00;98155.16;15294555;19;20369;-53
2023/08/05 10:50:44;;;;;;;2.08;0.85;;;;;;;19.81;100.00;98143.31;15297717;19;20019;-52
2023/08/05 10:56:09;;;;;;;3.05;1.02;;;;;;;19.84;100.00;98140.97;15296197;19;20351;-51
2023/08/05 11:01:58;;;;;;;4.05;0.90;;;;;;;19.85;100.00;98123.50;15289482;19;20476;-50
2023/08/05 11:07:24;;;;;;;2.50;0.90;;;;;;;19.96;100.00;98123.81;15293602;19;20021;-50
2023/08/05 11:12:49;;;;;;;1.75;0.88;;;;;;;20.04;100.00;98109.00;15292418;19;20018;-52
2023/08/05 11:18:16;;;;;;;1.85;0.77;;;;;;;20.13;100.00;98107.63;15297514;19;20020;-55
2023/08/05 11:23:43;;;;;;;2.00;0.80;;;;;;;20.20;100.00;98108.34;15296276;19;20022;-51
2023/08/05 11:29:10;;;;;;;2.25;0.90;;;;;;;20.37;100.00;98097.59;15295206;19;20010;-51
2023/08/05 11:34:38;;;;;;;1.50;0.80;;;;;;;20.55;100.00;98091.22;15285267;19;20035;-48
2023/08/05 11:40:08;;;;;;;2.70;0.80;;;;;;;20.87;100.00;98079.16;15293362;19;20011;-48
2023/08/05 11:45:33;;;;;;;1.58;0.70;;;;;;;20.99;100.00;98070.97;15285347;19;20045;-53
2023/08/05 11:51:06;;;;;;;1.50;0.80;;;;;;;21.03;100.00;98069.41;15293222;19;20013;-49
2023/08/05 11:56:34;;;;;;;2.65;0.80;;;;;;;21.04;100.00;98069.19;15291434;19;20031;-49
2023/08/05 12:01:59;;;;;;;1.33;0.82;;;;;;;21.03;100.00;98066.66;15291009;19;20094;-50
2023/08/05 12:07:26;;;;;;;1.35;0.70;;;;;;;21.04;100.00;98058.22;15290058;19;20018;-50
2023/08/05 12:12:53;;;;;;;1.63;0.73;;;;;;;21.03;100.00;98066.66;15293638;19;20007;-51
2023/08/05 12:18:20;;;;;;;2.55;0.80;;;;;;;20.98;100.00;98050.13;15286750;19;20011;-53
2023/08/05 12:23:48;;;;;;;2.72;0.82;;;;;;;20.94;100.00;98050.59;15292189;19;20014;-51
2023/08/05 12:29:12;;;;;;;2.13;0.82;;;;;;;20.97;100.00;98040.25;15291614;19;20029;-49
2023/08/05 12:34:36;;;;;;;0.85;0.70;;;;;;;21.03;100.00;98042.00;15284971;19;20021;-49
2023/08/05 12:40:05;;;;;;;2.50;0.80;;;;;;;21.15;100.00;98040.09;15290445;19;20035;-50
2023/08/05 12:45:30;;;;;;;2.10;0.85;;;;;;;21.07;100.00;98024.03;15287197;19;20026;-50
2023/08/05 12:50:55;;;;;;;2.40;0.80;;;;;;;21.17;100.00;98024.25;15291948;19;20035;-53
2023/08/05 12:56:23;;;;;;;1.67;0.80;;;;;;;21.41;100.00;98013.25;15293535;19;20031;-53
2023/08/05 13:01:48;;;;;;;1.58;0.80;;;;;;;21.62;100.00;98005.47;15289891;19;20022;-57
2023/08/05 13:07:14;;;;;;;2.33;0.88;;;;;;;21.72;100.00;98002.13;15279705;19;20018;-52
2023/08/05 13:12:41;;;;;;;2.10;0.80;;;;;;;21.84;100.00;97997.44;15288458;19;20021;-54
2023/08/05 13:18:06;;;;;;;1.60;0.70;;;;;;;22.07;100.00;97988.22;15284682;19;20017;-52
2023/08/05 13:23:30;;;;;;;2.25;0.80;;;;;;;22.28;100.00;97988.63;15286024;19;20476;-57
2023/08/05 13:28:58;;;;;;;1.95;0.70;;;;;;;22.39;100.00;97976.72;15284034;19;20696;-58
2023/08/05 13:34:22;;;;;;;1.48;0.68;;;;;;;22.54;100.00;97969.81;15288042;19;20010;-57
2023/08/05 13:39:50;;;;;;;1.20;0.60;;;;;;;22.72;100.00;97961.34;15285619;19;20014;-54
2023/08/05 13:45:18;;;;;;;1.52;0.73;;;;;;;22.93;100.00;97945.97;15283306;19;20026;-55
2023/08/05 13:50:43;;;;;;;1.83;0.70;;;;;;;23.00;100.00;97945.78;15279043;19;20091;-53
2023/08/05 13:56:07;;;;;;;1.90;0.60;;;;;;;23.05;100.00;97934.88;15286380;19;20027;-57
2023/08/05 14:01:35;;;;;;;1.00;0.60;;;;;;;23.20;100.00;97927.94;15286976;19;20018;-57
2023/08/05 14:06:59;;;;;;;1.27;0.70;;;;;;;23.22;100.00;97932.09;15283339;19;20098;-55
2023/08/05 14:12:24;;;;;;;1.50;0.60;;;;;;;23.39;100.00;97921.03;15280054;19;20023;-59
2023/08/05 14:17:52;;;;;;;1.45;0.65;;;;;;;23.75;100.00;97922.50;15285155;19;20018;-51
2023/08/05 14:23:17;;;;;;;1.52;0.50;;;;;;;24.09;100.00;97922.28;15278420;19;21113;-53
2023/08/05 14:28:41;;;;;;;0.70;0.57;;;;;;;24.16;100.00;97922.91;15285885;19;20015;-57
2023/08/05 14:34:09;;;;;;;1.63;0.70;;;;;;;24.10;100.00;97912.94;15284286;19;20010;-54
2023/08/05 14:39:34;;;;;;;0.82;0.50;;;;;;;24.27;100.00;97907.31;15280107;19;20035;-53
2023/08/05 14:44:59;;;;;;;1.13;0.68;;;;;;;24.49;100.00;97892.56;15273120;19;20102;-56
2023/08/05 14:50:33;;;;;;;0.85;0.55;;;;;;;24.28;100.00;97890.53;15276240;19;20100;-57
2023/08/05 14:55:58;;;;;;;0.95;0.60;;;;;;;24.12;100.00;97889.56;15275164;19;20086;-53
2023/08/05 15:01:23;;;;;;;1.10;0.60;;;;;;;24.02;100.00;97886.72;15282400;19;20011;-53
2023/08/05 15:06:50;;;;;;;2.63;0.60;;;;;;;23.85;100.00;97870.31;15281981;19;20086;-51
2023/08/05 15:12:17;;;;;;;0.65;0.50;;;;;;;23.69;100.00;97875.72;15299525;19;20617;-56
2023/08/05 15:17:41;;;;;;;1.73;0.50;;;;;;;23.58;100.00;97873.91;15290051;19;20014;-52
2023/08/05 15:23:09;;;;;;;0.60;0.40;;;;;;;23.42;100.00;97858.38;15296938;19;20554;-53
2023/08/05 15:28:47;;;;;;;2.55;0.80;;;;;;;23.16;100.00;97852.56;15292752;19;20011;-53
2023/08/05 15:34:12;;;;;;;1.15;0.68;;;;;;;23.01;100.00;97848.53;15292927;19;20031;-55
2023/08/05 15:39:39;;;;;;;1.48;0.60;;;;;;;22.94;100.00;97837.75;15298349;19;20032;-53
2023/08/05 15:45:04;;;;;;;1.00;0.70;;;;;;;22.91;100.00;97834.69;15284936;19;20030;-51
2023/08/05 15:50:35;;;;;;;2.63;0.55;;;;;;;22.89;100.00;97832.22;15277150;19;20007;-54
2023/08/05 15:56:04;;;;;;;2.22;0.60;;;;;;;22.84;100.00;97826.66;15290787;19;20018;-52
2023/08/05 16:01:29;;;;;;;2.10;0.50;;;;;;;22.86;100.00;97818.19;15299012;19;20031;-51
2023/08/05 16:06:58;;;;;;;1.48;0.55;;;;;;;22.78;100.00;97816.69;15305120;19;20018;-53
2023/08/05 16:12:25;;;;;;;2.35;0.65;;;;;;;22.76;100.00;97813.38;15294289;19;20474;-54
2023/08/05 16:17:50;;;;;;;0.85;0.57;;;;;;;22.74;100.00;97804.56;15290970;19;20489;-54
2023/08/05 16:23:15;;;;;;;2.42;0.70;;;;;;;22.77;100.00;97802.13;15285223;19;20021;-56
2023/08/05 16:28:42;;;;;;;2.78;0.60;;;;;;;22.69;100.00;97810.81;15289915;19;20018;-58
2023/08/05 16:34:07;;;;;;;3.08;0.57;;;;;;;22.62;100.00;97805.53;15293713;19;20086;-54
2023/08/05 16:39:31;;;;;;;1.48;0.70;;;;;;;22.56;100.00;97800.22;15291478;19;20014;-50
2023/08/05 16:45:00;;;;;;;0.90;0.60;;;;;;;22.57;100.00;97794.50;15288047;19;20646;-56
2023/08/05 16:50:26;;;;;;;0.82;0.60;;;;;;;22.75;100.00;97785.09;15285404;19;20006;-51
2023/08/05 16:55:50;;;;;;;1.27;0.60;;;;;;;22.81;100.00;97779.66;15280843;19;20023;-52
2023/08/05 17:01:17;;;;;;;1.23;0.60;;;;;;;22.72;100.00;97779.28;15290582;19;20074;-55
2023/08/05 17:06:42;;;;;;;1.73;0.70;;;;;;;22.63;100.00;97774.25;15283912;19;20018;-54
2023/08/05 17:12:09;;;;;;;1.17;0.68;;;;;;;22.56;100.00;97765.38;15288210;19;20078;-59
2023/08/05 17:17:37;;;;;;;1.13;0.68;;;;;;;22.43;100.00;97769.31;15291386;19;20086;-56
2023/08/05 17:23:02;;;;;;;1.80;0.70;;;;;;;22.31;100.00;97769.41;15287263;19;20377;-52
2023/08/05 17:28:27;;;;;;;1.52;0.55;;;;;;;22.19;100.00;97763.22;15275231;19;20021;-51
2023/08/05 17:33:54;;;;;;;1.02;0.50;;;;;;;21.99;100.00;97763.75;15287901;19;20018;-50
2023/08/05 17:39:19;;;;;;;0.82;0.50;;;;;;;21.84;100.00;97765.16;15281774;19;20035;-50
2023/08/05 17:44:44;;;;;;;1.40;0.60;;;;;;;21.72;100.00;97772.66;15286231;19;20010;-52
2023/08/05 17:50:19;;;;;;;1.33;0.60;;;;;;;21.58;100.00;97772.13;15283349;19;20030;-54
2023/08/05 17:55:46;;;;;;;1.90;0.57;;;;;;;21.41;100.00;97761.16;15285950;19;20900;-54
2023/08/05 18:01:11;;;;;;;1.23;0.70;;;;;;;21.24;100.00;97766.63;15280313;19;20078;-57
2023/08/05 18:06:39;;;;;;;1.05;0.60;;;;;;;21.07;100.00;97766.59;15282246;19;20019;-54
2023/08/05 18:12:04;;;;;;;1.55;0.60;;;;;;;20.91;100.00;97768.22;15280449;19;20035;-52
2023/08/05 18:17:29;;;;;;;1.45;0.60;;;;;;;20.74;100.00;97769.00;15285678;19;20027;-55
2023/08/05 18:22:57;;;;;;;1.88;0.60;;;;;;;20.62;100.00;97771.75;15284779;19;20019;-55
2023/08/05 18:28:21;;;;;;;0.90;0.60;;;;;;;20.45;100.00;97782.63;15279550;19;20011;-56
2023/08/05 18:33:46;;;;;;;1.52;0.60;;;;;;;20.32;100.00;97778.22;15283159;19;20021;-53
2023/08/05 18:39:13;;;;;;;1.77;0.50;;;;;;;20.20;100.00;97776.59;15283493;19;20011;-52
2023/08/05 18:44:39;;;;;;;1.42;0.55;;;;;;;20.06;100.00;97773.25;15289481;19;20611;-57
2023/08/05 18:50:10;;;;;;;1.13;0.63;;;;;;;19.93;100.00;97785.28;15293081;19;20014;-59
2023/08/05 18:55:37;;;;;;;2.35;0.63;;;;;;;19.77;100.00;97771.22;15297712;19;20018;-55
2023/08/05 19:01:02;;;;;;;1.80;0.60;;;;;;;19.63;100.00;97759.69;15291987;19;20048;-56
2023/08/05 19:06:27;;;;;;;1.23;0.80;;;;;;;19.51;100.00;97756.13;15296313;19;20025;-56
2023/08/05 19:11:56;;;;;;;2.22;0.98;;;;;;;19.36;100.00;97756.56;15298416;19;20056;-58
2023/08/05 19:17:22;;;;;;;1.83;0.90;;;;;;;19.26;100.00;97757.13;15284954;19;20027;-55
2023/08/05 19:22:46;;;;;;;1.25;0.60;;;;;;;19.18;100.00;97760.22;15295730;19;20448;-56
2023/08/05 19:28:14;;;;;;;1.00;0.80;;;;;;;19.07;100.00;97757.22;15291466;19;20028;-52
2023/08/05 19:33:40;;;;;;;1.13;0.80;;;;;;;18.98;100.00;97758.63;15288051;19;20019;-54
2023/08/05 19:39:06;;;;;;;1.70;0.90;;;;;;;18.89;100.00;97755.34;15297231;19;20011;-53
2023/08/05 19:44:33;;;;;;;1.42;0.80;;;;;;;18.79;100.00;97744.97;15294094;19;20019;-53
2023/08/05 19:50:04;;;;;;;3.30;0.70;;;;;;;18.71;100.00;97742.56;15281267;19;20014;-56
2023/08/05 19:55:32;;;;;;;1.70;0.90;;;;;;;18.60;100.00;97740.63;15289564;19;20559;-54
2023/08/05 20:01:05;;;;;;;2.33;1.10;;;;;;;18.53;100.00;97724.34;15292549;19;20010;-52
2023/08/05 20:06:31;;;;;;;2.00;1.05;;;;;;;18.48;100.00;97721.47;15283749;19;20476;-53
2023/08/05 20:11:56;;;;;;;2.40;1.17;;;;;;;18.42;100.00;97731.41;15293045;19;20082;-57
2023/08/05 20:17:23;;;;;;;1.63;1.15;;;;;;;18.34;100.00;97726.25;15288487;19;20010;-54
2023/08/05 20:22:48;;;;;;;2.85;1.10;;;;;;;18.23;100.00;97718.84;15288418;19;20043;-56
2023/08/05 20:28:13;;;;;;;1.73;0.98;;;;;;;18.15;100.00;97709.94;15288819;19;20011;-56
2023/08/05 20:33:40;;;;;;;2.40;1.10;;;;;;;18.10;100.00;97706.22;15288977;19;20090;-54
2023/08/05 20:39:07;;;;;;;3.22;1.30;;;;;;;18.04;100.00;97702.53;15285032;19;20011;-52
2023/08/05 20:44:32;;;;;;;1.67;1.15;;;;;;;17.98;100.00;97693.38;15289945;19;20015;-53
2023/08/05 20:50:06;;;;;;;1.40;1.02;;;;;;;17.94;100.00;97696.72;15265526;19;20078;-56
2023/08/05 20:55:33;;;;;;;1.83;1.10;;;;;;;17.86;100.00;97676.88;15287458;19;20026;-52
2023/08/05 21:01:08;;;;;;;2.45;1.10;;;;;;;17.80;100.00;97677.81;15289282;19;20081;-52
2023/08/05 21:06:35;;;;;;;2.03;1.10;;;;;;;17.73;100.00;97677.03;15282828;19;20049;-53
2023/08/05 21:12:00;;;;;;;2.20;1.10;;;;;;;17.67;100.00;97675.22;15281499;19;20480;-52
2023/08/05 21:17:25;;;;;;;2.20;0.98;;;;;;;17.61;100.00;97667.94;15282465;19;20031;-54
2023/08/05 21:22:52;;;;;;;1.60;1.00;;;;;;;17.54;100.00;97668.84;15281977;19;20018;-56
2023/08/05 21:28:18;;;;;;;2.15;1.00;;;;;;;17.48;100.00;97656.13;15284696;19;20014;-55
2023/08/05 21:33:42;;;;;;;2.25;1.02;;;;;;;17.43;100.00;97655.13;15287710;19;20351;-54
2023/08/05 21:39:09;;;;;;;3.97;0.95;;;;;;;17.42;100.00;97646.13;15286433;19;20033;-53
2023/08/05 21:44:34;;;;;;;2.92;1.00;;;;;;;17.37;100.00;97635.06;15280272;19;20024;-57
2023/08/05 21:50:05;;;;;;;1.38;1.00;;;;;;;17.34;100.00;97630.09;15281352;19;20085;-56
2023/08/05 21:55:32;;;;;;;2.20;1.10;;;;;;;17.31;100.00;97625.91;15278757;19;20632;-55
2023/08/05 22:00:57;;;;;;;1.50;0.98;;;;;;;17.29;100.00;97613.59;15286889;19;20050;-53
2023/08/05 22:06:23;;;;;;;1.88;0.90;;;;;;;17.24;100.00;97609.66;15283648;19;20017;-56
2023/08/05 22:11:50;;;;;;;1.80;0.88;;;;;;;17.21;100.00;97606.56;15285081;19;20366;-56
2023/08/05 22:17:15;;;;;;;1.38;1.00;;;;;;;17.18;100.00;97605.13;15280017;19;20015;-56
2023/08/05 22:22:39;;;;;;;2.97;0.82;;;;;;;17.17;100.00;97595.28;14788812;19;10000753;-55
2023/08/05 22:28:06;;;;;;;1.70;1.00;;;;;;;17.17;100.00;97592.56;15293214;19;20098;-55
2023/08/05 22:33:31;;;;;;;3.42;0.95;;;;;;;17.16;100.00;97590.91;15299272;19;20021;-54
2023/08/05 22:38:56;;;;;;;2.65;0.90;;;;;;;17.10;100.00;97595.34;15299928;19;20018;-54
2023/08/05 22:44:23;;;;;;;1.30;1.00;;;;;;;17.07;100.00;97589.53;15296495;19;20014;-58
2023/08/05 22:49:48;;;;;;;1.52;0.90;;;;;;;17.04;100.00;97593.53;15286263;19;20022;-57
2023/08/05 22:55:13;;;;;;;1.88;1.08;;;;;;;17.03;100.00;97596.47;15297609;19;20014;-57
2023/08/05 23:00:40;;;;;;;2.10;0.80;;;;;;;17.02;100.00;97600.22;15292392;19;20037;-57
2023/08/05 23:06:05;;;;;;;1.10;0.75;;;;;;;17.01;100.00;97610.31;15295938;19;20018;-54
2023/08/05 23:11:30;;;;;;;2.03;0.90;;;;;;;17.02;100.00;97616.56;15296723;19;20089;-57
2023/08/05 23:16:57;;;;;;;2.28;1.00;;;;;;;17.02;100.00;97613.84;15294019;19;20082;-52
2023/08/05 23:22:22;;;;;;;3.05;1.00;;;;;;;16.96;100.00;97622.91;15291178;19;20021;-56
2023/08/05 23:27:46;;;;;;;2.60;1.05;;;;;;;16.53;100.00;97657.88;15293339;19;20010;-54
2023/08/05 23:33:13;;;;;;;1.80;0.80;;;;;;;16.27;100.00;97648.00;15290503;19;20085;-56
2023/08/05 23:38:38;;;;;;;0.68;0.50;;;;;;;16.20;100.00;97648.03;15296428;19;20014;-52
2023/08/05 23:44:03;;;;;;;0.40;0.40;;;;;;;16.09;100.00;97627.84;15295222;19;20018;-54
2023/08/05 23:49:37;;;;;;;1.85;0.47;;;;;;;15.97;100.00;97622.22;15289776;19;20542;-54
2023/08/05 23:55:02;;;;;;;1.55;0.40;;;;;;;15.83;100.00;97612.44;15290737;19;20015;-57
